createdAt,value
2018-07-22T00:00:15.403Z,18.40
2018-07-22T00:02:47.344Z,18.40
2018-07-22T00:05:19.009Z,18.40
2018-07-22T00:07:50.774Z,18.40
2018-07-22T00:10:27.846Z,18.40
2018-07-22T00:13:00.531Z,18.30
2018-07-22T00:15:32.387Z,18.30
2018-07-22T00:18:04.154Z,18.30
2018-07-22T00:20:35.887Z,18.30
2018-07-22T00:23:07.695Z,18.30
2018-07-22T00:25:39.386Z,18.30
2018-07-22T00:28:11.273Z,18.30
2018-07-22T00:30:43.067Z,18.30
2018-07-22T00:33:14.780Z,18.30
2018-07-22T00:35:46.452Z,18.30
2018-07-22T00:38:18.217Z,18.20
2018-07-22T00:40:49.964Z,18.20
2018-07-22T00:43:21.641Z,18.20
2018-07-22T00:45:53.302Z,18.20
2018-07-22T00:48:25.133Z,18.20
2018-07-22T00:50:56.800Z,18.20
2018-07-22T00:53:28.474Z,18.20
2018-07-22T00:56:00.304Z,18.20
2018-07-22T00:58:32.081Z,18.30
2018-07-22T01:01:03.861Z,18.20
2018-07-22T01:03:35.686Z,18.20
2018-07-22T01:06:07.675Z,18.20
2018-07-22T01:08:39.330Z,18.20
2018-07-22T01:11:11.093Z,18.20
2018-07-22T01:13:42.974Z,18.20
2018-07-22T01:16:14.614Z,18.20
2018-07-22T01:18:46.266Z,18.20
2018-07-22T01:21:18.148Z,18.30
2018-07-22T01:23:49.967Z,18.20
2018-07-22T01:26:21.854Z,18.20
2018-07-22T01:28:53.621Z,18.10
2018-07-22T01:31:25.452Z,18.20
2018-07-22T01:33:57.165Z,18.20
2018-07-22T01:36:29.093Z,18.20
2018-07-22T01:39:00.826Z,18.20
2018-07-22T01:41:32.488Z,18.20
2018-07-22T01:44:04.268Z,18.20
2018-07-22T01:46:36.206Z,18.20
2018-07-22T01:49:07.997Z,18.20
2018-07-22T01:51:39.642Z,18.20
2018-07-22T01:54:11.376Z,18.20
2018-07-22T01:56:43.045Z,18.20
2018-07-22T01:59:14.697Z,18.20
2018-07-22T02:01:46.554Z,18.20
2018-07-22T02:04:18.356Z,18.20
2018-07-22T02:06:49.996Z,18.10
2018-07-22T02:09:21.772Z,18.10
2018-07-22T02:11:53.400Z,18.10
2018-07-22T02:14:25.260Z,18.10
2018-07-22T02:16:57.101Z,18.10
2018-07-22T02:19:28.862Z,18.10
2018-07-22T02:22:00.772Z,18.00
2018-07-22T02:24:32.510Z,18.10
2018-07-22T02:27:04.284Z,18.10
2018-07-22T02:29:35.917Z,18.10
2018-07-22T02:32:07.892Z,18.10
2018-07-22T02:34:39.617Z,18.10
2018-07-22T02:37:11.293Z,18.10
2018-07-22T02:39:43.137Z,18.10
2018-07-22T02:42:14.795Z,18.00
2018-07-22T02:44:46.473Z,18.10
2018-07-22T02:47:18.311Z,18.10
2018-07-22T02:49:50.220Z,18.10
2018-07-22T02:52:21.867Z,18.10
2018-07-22T02:54:53.518Z,18.00
2018-07-22T02:57:25.285Z,18.10
2018-07-22T02:59:57.051Z,18.10
2018-07-22T03:02:28.841Z,18.00
2018-07-22T03:05:00.734Z,18.10
2018-07-22T03:07:32.491Z,18.10
2018-07-22T03:10:04.273Z,18.00
2018-07-22T03:12:36.129Z,18.00
2018-07-22T03:15:08.196Z,18.10
2018-07-22T03:17:40.147Z,18.10
2018-07-22T03:20:11.929Z,18.10
2018-07-22T03:22:43.581Z,18.10
2018-07-22T03:25:15.412Z,18.10
2018-07-22T03:27:47.203Z,18.00
2018-07-22T03:30:18.967Z,18.10
2018-07-22T03:32:50.686Z,18.10
2018-07-22T03:35:22.361Z,18.10
2018-07-22T03:37:54.021Z,18.00
2018-07-22T03:40:25.870Z,18.00
2018-07-22T03:42:57.535Z,18.00
2018-07-22T03:45:29.309Z,18.00
2018-07-22T03:48:01.137Z,18.00
2018-07-22T03:50:33.035Z,18.00
2018-07-22T03:53:04.808Z,18.00
2018-07-22T03:55:36.542Z,18.00
2018-07-22T03:58:08.209Z,17.90
2018-07-22T04:00:40.025Z,18.00
2018-07-22T04:03:11.721Z,18.00
2018-07-22T04:05:43.448Z,18.00
2018-07-22T04:08:15.112Z,18.00
2018-07-22T04:10:46.795Z,17.90
2018-07-22T04:13:18.526Z,18.00
2018-07-22T04:15:50.438Z,17.90
2018-07-22T04:18:22.167Z,17.90
2018-07-22T04:20:54.010Z,18.00
2018-07-22T04:23:25.767Z,18.00
2018-07-22T04:25:57.553Z,18.00
2018-07-22T04:28:29.200Z,18.00
2018-07-22T04:31:00.870Z,18.00
2018-07-22T04:33:32.617Z,18.00
2018-07-22T04:36:04.372Z,18.00
2018-07-22T04:38:36.065Z,18.00
2018-07-22T04:41:07.813Z,18.00
2018-07-22T04:43:39.737Z,18.00
2018-07-22T04:46:11.692Z,18.00
2018-07-22T04:48:43.486Z,17.90
2018-07-22T04:51:15.364Z,17.90
2018-07-22T04:53:47.108Z,17.80
2018-07-22T04:56:18.882Z,17.80
2018-07-22T04:58:50.641Z,17.80
2018-07-22T05:01:22.506Z,17.80
2018-07-22T05:03:54.363Z,17.80
2018-07-22T05:06:25.981Z,17.80
2018-07-22T05:08:57.641Z,17.70
2018-07-22T05:11:29.538Z,17.70
2018-07-22T05:14:01.158Z,17.70
2018-07-22T05:16:32.928Z,17.60
2018-07-22T05:19:04.658Z,17.60
2018-07-22T05:21:36.363Z,17.60
2018-07-22T05:24:08.177Z,17.60
2018-07-22T05:26:39.989Z,17.60
2018-07-22T05:29:11.746Z,17.60
2018-07-22T05:31:43.556Z,17.60
2018-07-22T05:34:15.521Z,17.60
2018-07-22T05:36:47.309Z,17.60
2018-07-22T05:39:19.061Z,17.60
2018-07-22T05:41:50.894Z,17.60
2018-07-22T05:44:22.915Z,17.60
2018-07-22T05:46:54.550Z,17.70
2018-07-22T05:49:26.255Z,17.70
2018-07-22T05:51:58.089Z,17.70
2018-07-22T05:54:29.705Z,17.70
2018-07-22T05:57:01.477Z,17.60
2018-07-22T05:59:33.209Z,17.60
2018-07-22T06:02:04.927Z,17.70
2018-07-22T06:04:36.652Z,17.70
2018-07-22T06:07:08.488Z,17.70
2018-07-22T06:09:40.161Z,17.70
2018-07-22T06:12:12.318Z,17.70
2018-07-22T06:14:44.210Z,17.80
2018-07-22T06:17:16.157Z,17.70
2018-07-22T06:19:48.051Z,17.70
2018-07-22T06:22:19.791Z,17.70
2018-07-22T06:24:51.518Z,17.80
2018-07-22T06:27:23.278Z,17.80
2018-07-22T06:29:55.153Z,17.80
2018-07-22T06:32:26.839Z,17.80
2018-07-22T06:34:58.583Z,17.80
2018-07-22T06:37:31.183Z,17.80
2018-07-22T06:40:03.020Z,17.90
2018-07-22T06:42:34.787Z,17.90
2018-07-22T06:45:06.559Z,17.90
2018-07-22T06:47:38.374Z,17.90
2018-07-22T06:50:10.284Z,17.90
2018-07-22T06:52:42.043Z,17.90
2018-07-22T06:55:13.796Z,17.90
2018-07-22T06:57:45.609Z,17.90
2018-07-22T07:00:17.284Z,17.90
2018-07-22T07:02:49.057Z,17.90
2018-07-22T07:05:20.977Z,17.90
2018-07-22T07:07:52.802Z,17.90
2018-07-22T07:10:24.433Z,17.90
2018-07-22T07:12:56.202Z,17.90
2018-07-22T07:15:27.937Z,17.90
2018-07-22T07:17:59.598Z,18.00
2018-07-22T07:20:31.293Z,17.90
2018-07-22T07:23:02.910Z,18.00
2018-07-22T07:25:34.705Z,18.00
2018-07-22T07:28:06.434Z,18.00
2018-07-22T07:30:38.508Z,18.00
2018-07-22T07:33:10.346Z,17.90
2018-07-22T07:35:42.110Z,17.90
2018-07-22T07:38:13.907Z,17.90
2018-07-22T07:40:45.623Z,18.00
2018-07-22T07:43:17.589Z,18.00
2018-07-22T07:45:49.357Z,18.00
2018-07-22T07:48:21.250Z,18.00
2018-07-22T07:50:53.049Z,18.10
2018-07-22T07:53:24.877Z,18.10
2018-07-22T07:55:56.488Z,18.10
2018-07-22T07:58:28.256Z,18.10
2018-07-22T08:01:00.096Z,18.10
2018-07-22T08:03:31.961Z,18.20
2018-07-22T08:06:04.638Z,18.10
2018-07-22T08:08:36.447Z,18.20
2018-07-22T08:11:08.301Z,18.20
2018-07-22T08:13:40.046Z,18.20
2018-07-22T08:16:11.980Z,18.20
2018-07-22T08:18:43.852Z,18.20
2018-07-22T08:21:15.521Z,18.20
2018-07-22T08:23:47.286Z,18.20
2018-07-22T08:26:19.220Z,18.20
2018-07-22T08:29:25.617Z,18.20
2018-07-22T08:31:57.411Z,18.20
2018-07-22T08:34:29.305Z,18.20
2018-07-22T08:37:01.405Z,18.20
2018-07-22T08:39:33.768Z,18.20
2018-07-22T08:42:05.596Z,18.20
2018-07-22T08:44:37.381Z,18.20
2018-07-22T08:47:09.184Z,18.30
2018-07-22T08:49:40.927Z,18.30
2018-07-22T08:52:12.863Z,18.30
2018-07-22T08:54:44.528Z,18.30
2018-07-22T08:57:16.382Z,18.30
2018-07-22T08:59:48.160Z,18.30
2018-07-22T09:02:20.016Z,18.30
2018-07-22T09:04:51.749Z,18.30
2018-07-22T09:07:30.775Z,18.30
2018-07-22T09:10:25.215Z,18.20
2018-07-22T09:13:01.643Z,18.30
2018-07-22T09:15:59.563Z,18.30
2018-07-22T09:18:33.273Z,18.30
2018-07-22T09:21:09.054Z,18.30
2018-07-22T09:23:42.938Z,18.40
2018-07-22T09:26:15.192Z,18.40
2018-07-22T09:28:49.682Z,18.40
2018-07-22T09:31:23.576Z,18.50
2018-07-22T09:33:57.142Z,18.50
2018-07-22T09:36:32.801Z,18.60
2018-07-22T09:39:08.956Z,18.70
2018-07-22T09:41:42.521Z,18.70
2018-07-22T09:44:17.410Z,18.70
2018-07-22T09:46:56.124Z,18.80
2018-07-22T09:49:47.185Z,18.80
2018-07-22T09:52:20.779Z,18.80
2018-07-22T09:54:52.386Z,18.90
2018-07-22T09:57:24.193Z,18.80
2018-07-22T09:59:57.548Z,18.80
2018-07-22T10:02:30.097Z,18.80
2018-07-22T10:05:01.816Z,18.70
2018-07-22T10:07:33.753Z,18.70
2018-07-22T10:10:05.458Z,18.70
2018-07-22T10:12:37.196Z,18.60
2018-07-22T10:15:09.774Z,18.80
2018-07-22T10:17:41.743Z,18.70
2018-07-22T10:20:26.949Z,18.70
2018-07-22T10:23:00.331Z,18.80
2018-07-22T10:25:32.097Z,18.80
2018-07-22T10:28:03.752Z,18.80
2018-07-22T10:30:35.527Z,18.90
2018-07-22T10:33:07.438Z,18.90
2018-07-22T10:35:39.124Z,19.00
2018-07-22T10:38:10.859Z,19.10
2018-07-22T10:40:42.543Z,19.10
2018-07-22T10:43:14.396Z,19.20
2018-07-22T10:45:46.377Z,19.20
2018-07-22T10:48:18.292Z,19.30
2018-07-22T10:50:50.112Z,19.30
2018-07-22T10:53:22.005Z,19.30
2018-07-22T10:55:53.789Z,19.30
2018-07-22T10:58:25.604Z,19.30
2018-07-22T11:00:57.234Z,19.30
2018-07-22T11:03:28.966Z,19.30
2018-07-22T11:06:00.869Z,19.30
2018-07-22T11:08:32.606Z,19.30
2018-07-22T11:11:04.337Z,19.40
2018-07-22T11:13:36.261Z,19.40
2018-07-22T11:16:08.219Z,19.50
2018-07-22T11:18:39.951Z,19.50
2018-07-22T11:21:12.014Z,19.60
2018-07-22T11:23:43.797Z,19.70
2018-07-22T11:26:15.633Z,19.80
2018-07-22T11:28:47.614Z,19.90
2018-07-22T11:31:19.182Z,20.00
2018-07-22T11:33:50.806Z,20.10
2018-07-22T11:36:22.590Z,20.20
2018-07-22T11:38:54.441Z,20.20
2018-07-22T11:41:26.274Z,20.30
2018-07-22T11:44:07.268Z,20.40
2018-07-22T11:46:40.653Z,20.40
2018-07-22T11:49:12.500Z,20.40
2018-07-22T11:51:44.264Z,20.50
2018-07-22T11:54:16.050Z,20.40
2018-07-22T11:56:47.810Z,20.50
2018-07-22T11:59:19.446Z,20.50
2018-07-22T12:01:51.260Z,20.40
2018-07-22T12:04:23.063Z,20.40
2018-07-22T12:06:54.737Z,20.30
2018-07-22T12:09:26.566Z,20.40
2018-07-22T12:11:58.272Z,20.40
2018-07-22T12:14:30.016Z,20.50
2018-07-22T12:17:01.593Z,20.50
2018-07-22T12:19:33.199Z,20.50
2018-07-22T12:22:05.101Z,20.50
2018-07-22T12:24:37.225Z,20.60
2018-07-22T12:27:08.849Z,20.60
2018-07-22T12:29:40.640Z,20.60
2018-07-22T12:32:12.293Z,20.60
2018-07-22T12:34:44.054Z,20.60
2018-07-22T12:37:15.697Z,20.60
2018-07-22T12:39:47.473Z,20.60
2018-07-22T12:42:19.261Z,20.70
2018-07-22T12:44:50.897Z,20.70
2018-07-22T12:47:22.646Z,20.80
2018-07-22T12:49:54.315Z,20.80
2018-07-22T12:52:25.984Z,20.80
2018-07-22T12:54:57.710Z,20.80
2018-07-22T12:57:29.386Z,20.80
2018-07-22T13:00:01.055Z,20.80
2018-07-22T13:02:32.686Z,20.90
2018-07-22T13:05:04.592Z,21.00
2018-07-22T13:07:36.068Z,21.10
2018-07-22T13:12:38.998Z,21.30
2018-07-22T13:15:11.004Z,21.30
2018-07-22T13:17:42.754Z,21.40
2018-07-22T13:20:14.681Z,21.50
2018-07-22T13:22:46.648Z,21.60
2018-07-22T13:25:18.329Z,21.80
2018-07-22T13:27:50.228Z,21.90
2018-07-22T13:32:52.996Z,22.10
2018-07-22T13:35:24.881Z,22.20
2018-07-22T13:37:56.517Z,22.30
2018-07-22T13:40:28.400Z,22.20
2018-07-22T13:43:00.214Z,22.30
2018-07-22T13:45:32.112Z,22.30
2018-07-22T13:48:03.883Z,22.30
2018-07-22T13:50:35.608Z,22.30
2018-07-22T13:53:07.556Z,22.40
2018-07-22T13:55:39.236Z,22.40
2018-07-22T13:58:10.902Z,22.40
2018-07-22T14:00:42.662Z,22.50
2018-07-22T14:03:14.309Z,22.50
2018-07-22T14:05:46.069Z,22.50
2018-07-22T14:08:17.954Z,22.50
2018-07-22T14:10:49.589Z,22.50
2018-07-22T14:13:21.341Z,22.50
2018-07-22T14:15:53.074Z,22.50
2018-07-22T14:18:24.759Z,22.50
2018-07-22T14:20:56.512Z,22.60
2018-07-22T14:23:28.306Z,22.60
2018-07-22T14:26:00.162Z,22.70
2018-07-22T14:28:32.148Z,22.50
2018-07-22T14:31:04.131Z,22.50
2018-07-22T14:33:36.158Z,22.50
2018-07-22T14:36:08.000Z,22.50
2018-07-22T14:38:39.762Z,22.50
2018-07-22T14:41:11.585Z,22.40
2018-07-22T14:43:43.382Z,22.40
2018-07-22T14:46:14.918Z,22.50
2018-07-22T14:48:46.590Z,22.50
2018-07-22T14:51:18.230Z,22.50
2018-07-22T14:53:49.996Z,22.40
2018-07-22T14:56:21.844Z,22.40
2018-07-22T14:58:53.598Z,22.30
2018-07-22T15:01:25.502Z,22.30
2018-07-22T15:03:57.121Z,22.20
2018-07-22T15:06:28.888Z,22.30
2018-07-22T15:09:00.676Z,22.20
2018-07-22T15:11:32.513Z,22.10
2018-07-22T15:14:04.426Z,22.20
2018-07-22T15:16:36.033Z,22.20
2018-07-22T15:19:07.794Z,22.20
2018-07-22T15:21:39.470Z,22.00
2018-07-22T15:24:11.212Z,22.00
2018-07-22T15:26:42.767Z,22.00
2018-07-22T15:29:14.412Z,21.90
2018-07-22T15:31:46.153Z,21.90
2018-07-22T15:34:17.822Z,21.90
2018-07-22T15:36:49.693Z,21.90
2018-07-22T15:39:21.637Z,21.90
2018-07-22T15:41:53.498Z,21.90
2018-07-22T15:44:25.170Z,21.90
2018-07-22T15:46:56.921Z,21.80
2018-07-22T15:49:28.694Z,21.80
2018-07-22T15:52:00.576Z,21.80
2018-07-22T15:54:32.434Z,21.80
2018-07-22T15:57:04.256Z,21.80
2018-07-22T15:59:35.926Z,21.90
2018-07-22T16:02:07.702Z,21.80
2018-07-22T16:04:39.496Z,21.80
2018-07-22T16:07:11.206Z,21.80
2018-07-22T16:09:42.940Z,21.80
2018-07-22T16:12:14.613Z,21.80
2018-07-22T16:14:46.290Z,21.70
2018-07-22T16:17:18.119Z,21.80
2018-07-22T16:19:49.662Z,21.70
2018-07-22T16:22:21.448Z,21.70
2018-07-22T16:24:53.302Z,21.70
2018-07-22T16:27:25.057Z,21.60
2018-07-22T16:29:57.070Z,21.60
2018-07-22T16:32:28.964Z,21.50
2018-07-22T16:35:00.735Z,21.50
2018-07-22T16:37:32.546Z,21.50
2018-07-22T16:40:04.277Z,21.50
2018-07-22T16:42:36.014Z,21.50
2018-07-22T16:45:07.785Z,21.50
2018-07-22T16:47:39.446Z,21.60
2018-07-22T16:50:11.503Z,21.60
2018-07-22T16:52:43.182Z,21.60
2018-07-22T16:55:15.001Z,21.50
2018-07-22T16:57:46.593Z,21.50
2018-07-22T17:00:18.372Z,21.40
2018-07-22T17:02:50.021Z,21.50
2018-07-22T17:05:21.773Z,21.40
2018-07-22T17:07:53.525Z,21.40
2018-07-22T17:10:25.397Z,21.30
2018-07-22T17:12:57.129Z,21.30
2018-07-22T17:15:28.796Z,21.30
2018-07-22T17:18:00.528Z,21.20
2018-07-22T17:20:32.207Z,21.20
2018-07-22T17:23:03.946Z,21.10
2018-07-22T17:25:35.614Z,21.10
2018-07-22T17:28:07.422Z,21.10
2018-07-22T17:30:39.242Z,21.00
2018-07-22T17:33:11.051Z,21.00
2018-07-22T17:38:13.885Z,21.00
2018-07-22T17:40:45.710Z,20.90
2018-07-22T17:43:17.542Z,20.90
2018-07-22T17:45:49.202Z,21.00
2018-07-22T17:48:20.977Z,20.90
2018-07-22T17:50:52.723Z,20.90
2018-07-22T17:53:24.440Z,20.90
2018-07-22T17:55:56.739Z,20.80
2018-07-22T17:58:28.376Z,20.90
2018-07-22T18:01:00.160Z,20.80
2018-07-22T18:03:32.929Z,20.80
2018-07-22T18:06:04.619Z,20.80
2018-07-22T18:08:36.432Z,20.70
2018-07-22T18:11:08.402Z,20.70
2018-07-22T18:13:40.073Z,20.70
2018-07-22T18:16:11.932Z,20.70
2018-07-22T18:18:43.775Z,20.60
2018-07-22T18:21:15.785Z,20.60
2018-07-22T18:23:47.510Z,20.60
2018-07-22T18:26:19.272Z,20.60
2018-07-22T18:28:50.948Z,20.60
2018-07-22T18:31:22.776Z,20.60
2018-07-22T18:33:54.561Z,20.60
2018-07-22T18:36:26.331Z,20.60
2018-07-22T18:38:58.044Z,20.60
2018-07-22T18:41:29.800Z,20.60
2018-07-22T18:44:01.492Z,20.60
2018-07-22T18:46:33.421Z,20.60
2018-07-22T18:49:05.318Z,20.60
2018-07-22T18:51:36.953Z,20.50
2018-07-22T18:54:08.843Z,20.50
2018-07-22T18:56:40.661Z,20.50
2018-07-22T18:59:12.474Z,20.50
2018-07-22T19:01:44.201Z,20.50
2018-07-22T19:04:15.863Z,20.40
2018-07-22T19:06:47.651Z,20.40
2018-07-22T19:09:19.389Z,20.30
2018-07-22T19:11:51.150Z,20.30
2018-07-22T19:14:23.028Z,20.30
2018-07-22T19:16:54.741Z,20.30
2018-07-22T19:19:26.428Z,20.30
2018-07-22T19:21:58.157Z,20.20
2018-07-22T19:24:29.841Z,20.20
2018-07-22T19:27:01.499Z,20.10
2018-07-22T19:29:33.234Z,20.10
2018-07-22T19:32:05.006Z,20.10
2018-07-22T19:34:36.749Z,20.00
2018-07-22T19:37:08.522Z,19.90
2018-07-22T19:39:40.260Z,19.90
2018-07-22T19:42:11.940Z,19.90
2018-07-22T19:44:43.805Z,19.90
2018-07-22T19:47:15.602Z,19.80
2018-07-22T19:49:47.310Z,19.80
2018-07-22T19:52:19.085Z,19.80
2018-07-22T19:54:51.018Z,19.80
2018-07-22T19:57:22.801Z,19.80
2018-07-22T19:59:54.466Z,19.80
2018-07-22T20:02:26.300Z,19.80
2018-07-22T20:04:58.103Z,19.80
2018-07-22T20:07:29.862Z,19.80
2018-07-22T20:10:01.605Z,19.80
2018-07-22T20:12:33.344Z,19.80
2018-07-22T20:15:05.652Z,19.80
2018-07-22T20:17:37.377Z,19.80
2018-07-22T20:20:12.617Z,19.80
2018-07-22T20:22:44.397Z,19.80
2018-07-22T20:25:16.248Z,19.80
2018-07-22T20:27:47.897Z,19.80
2018-07-22T20:30:19.742Z,19.80
2018-07-22T20:32:51.600Z,19.80
2018-07-22T20:35:23.368Z,19.80
2018-07-22T20:37:55.177Z,19.80
2018-07-22T20:40:26.935Z,19.80
2018-07-22T20:42:58.809Z,19.80
2018-07-22T20:48:02.154Z,19.90
2018-07-22T20:50:33.933Z,19.80
2018-07-22T20:53:05.705Z,19.80
2018-07-22T20:55:37.432Z,19.80
2018-07-22T20:58:09.121Z,19.80
2018-07-22T21:00:40.766Z,19.80
2018-07-22T21:03:12.653Z,19.80
2018-07-22T21:05:44.403Z,19.70
2018-07-22T21:08:16.262Z,19.70
2018-07-22T21:10:47.989Z,19.70
2018-07-22T21:13:23.309Z,19.60
2018-07-22T21:15:55.121Z,19.50
2018-07-22T21:18:26.876Z,19.50
2018-07-22T21:20:58.608Z,19.50
2018-07-22T21:23:30.320Z,19.50
2018-07-22T21:26:01.938Z,19.50
2018-07-22T21:28:33.724Z,19.50
2018-07-22T21:31:05.357Z,19.50
2018-07-22T21:33:37.241Z,19.50
2018-07-22T21:36:08.975Z,19.50
2018-07-22T21:38:40.650Z,19.50
2018-07-22T21:41:12.575Z,19.50
2018-07-22T21:43:44.430Z,19.50
2018-07-22T21:46:16.240Z,19.50
2018-07-22T21:48:47.991Z,19.50
2018-07-22T21:51:19.863Z,19.50
2018-07-22T21:53:51.603Z,19.40
2018-07-22T21:56:23.254Z,19.30
2018-07-22T21:58:54.909Z,19.30
2018-07-22T22:01:26.646Z,19.30
2018-07-22T22:03:58.400Z,19.30
2018-07-22T22:06:30.215Z,19.30
2018-07-22T22:09:01.944Z,19.30
2018-07-22T22:11:33.830Z,19.20
2018-07-22T22:14:05.657Z,19.20
2018-07-22T22:16:37.426Z,19.10
2018-07-22T22:19:09.270Z,19.20
2018-07-22T22:21:41.071Z,19.10
2018-07-22T22:24:12.825Z,19.10
2018-07-22T22:26:44.466Z,19.20
2018-07-22T22:29:16.302Z,19.10
2018-07-22T22:31:48.106Z,19.10
2018-07-22T22:34:19.737Z,19.10
2018-07-22T22:36:51.628Z,19.10
2018-07-22T22:39:23.345Z,19.10
2018-07-22T22:41:55.226Z,19.10
2018-07-22T22:44:26.974Z,19.00
2018-07-22T22:46:58.816Z,19.00
2018-07-22T22:49:30.638Z,18.90
2018-07-22T22:52:02.587Z,18.90
2018-07-22T22:54:34.553Z,18.90
2018-07-22T22:57:06.388Z,18.90
2018-07-22T22:59:38.225Z,18.90
2018-07-22T23:02:10.189Z,18.90
2018-07-22T23:04:41.861Z,18.90
2018-07-22T23:07:13.730Z,18.90
2018-07-22T23:09:45.461Z,18.90
2018-07-22T23:12:17.146Z,18.90
2018-07-22T23:14:48.924Z,18.90
2018-07-22T23:17:20.639Z,19.00
2018-07-22T23:19:52.268Z,19.00
2018-07-22T23:22:24.090Z,19.00
2018-07-22T23:24:55.913Z,18.90
2018-07-22T23:27:27.586Z,19.00
2018-07-22T23:29:59.351Z,18.90
2018-07-22T23:32:31.137Z,18.90
2018-07-22T23:35:02.769Z,18.90
2018-07-22T23:37:34.504Z,18.90
2018-07-22T23:40:06.384Z,18.90
2018-07-22T23:42:38.178Z,18.90
2018-07-22T23:45:10.010Z,18.90
2018-07-22T23:47:41.745Z,18.90
2018-07-22T23:50:13.621Z,18.90
2018-07-22T23:52:45.280Z,18.80
2018-07-22T23:55:17.145Z,18.80
2018-07-22T23:57:49.189Z,18.80
